Time;durP1;ratioP1;P1;durP2;ratioP2;P2;SDS_P1;SDS_P2;PMS_P1;PMS_P2;Temp;Humidity;BMP_temperature;BMP_pressure;BME280_temperature;BME280_humidity;BME280_pressure;Samples;Min_cycle;Max_cycle;Signal;HPM_P1;HPM_P2
2023/12/28 00:02:15;;;;;;;;;;;;;;;21.73;27.62;99037.13;5053731;28;941;-73
2023/12/28 00:04:41;;;;;;;;;;;;;;;21.85;27.40;99041.44;5017406;28;1977;-73
2023/12/28 00:07:06;;;;;;;;;;;;;;;21.80;27.65;99047.56;5014390;28;1099;-73
2023/12/28 00:09:32;;;;;;;;;;;;;;;22.07;27.35;99050.50;4997636;28;1098;-73
2023/12/28 00:11:58;;;;;;;;;;;;;;;21.90;27.43;99062.84;5014250;28;936;-73
2023/12/28 00:14:24;;;;;;;;;;;;;;;21.85;27.26;99056.41;4997760;28;1311;-73
2023/12/28 00:16:49;;;;;;;;;;;;;;;21.72;27.25;99058.19;5014347;28;979;-73
2023/12/28 00:19:15;;;;;;;;;;;;;;;21.68;27.66;99063.06;4997529;28;1015;-73
2023/12/28 00:21:41;;;;;;;;;;;;;;;21.92;27.38;99054.75;4997734;28;910;-73
2023/12/28 00:24:06;;;;;;;;;;;;;;;21.89;27.13;99055.59;4998557;28;1365;-73
2023/12/28 00:26:32;;;;;;;;;;;;;;;21.45;27.98;99060.06;5017238;28;1906;-73
2023/12/28 00:29:03;;;;;;;;;;;;;;;21.35;27.78;99072.28;4998228;28;1363;-73
2023/12/28 00:31:28;;;;;;;;;;;;;;;21.21;27.94;99067.53;5013680;28;1114;-73
2023/12/28 00:33:54;;;;;;;;;;;;;;;21.70;27.75;99071.94;4997724;28;955;-73
2023/12/28 00:36:20;;;;;;;;;;;;;;;21.53;27.78;99072.94;5013179;28;1475;-72
2023/12/28 00:38:46;;;;;;;;;;;;;;;21.83;27.43;99075.88;5013816;28;1057;-73
2023/12/28 00:41:11;;;;;;;;;;;;;;;21.56;27.48;99083.44;4997448;28;937;-73
2023/12/28 00:43:37;;;;;;;;;;;;;;;21.68;27.12;99074.41;4981472;28;1127;-73
2023/12/28 00:46:02;;;;;;;;;;;;;;;21.59;27.54;99076.91;5013110;28;1887;-73
2023/12/28 00:48:28;;;;;;;;;;;;;;;21.75;27.44;99074.31;5000631;28;1163;-73
2023/12/28 00:50:55;;;;;;;;;;;;;;;21.79;27.17;99068.63;5018902;28;959;-73
2023/12/28 00:53:20;;;;;;;;;;;;;;;21.87;27.21;99066.53;5020950;28;949;-73
2023/12/28 00:55:46;;;;;;;;;;;;;;;21.78;27.52;99067.03;4987790;28;1562;-73
2023/12/28 00:58:12;;;;;;;;;;;;;;;21.69;27.26;99067.50;5004160;28;919;-73
2023/12/28 01:00:37;;;;;;;;;;;;;;;21.59;27.58;99074.09;5037128;28;942;-73
2023/12/28 01:03:03;;;;;;;;;;;;;;;21.57;27.66;99068.06;5038880;28;1062;-73
2023/12/28 01:05:29;;;;;;;;;;;;;;;21.54;27.57;99083.03;5037296;28;1902;-73
2023/12/28 01:07:55;;;;;;;;;;;;;;;21.71;27.46;99079.25;5021748;28;1133;-72
2023/12/28 01:10:21;;;;;;;;;;;;;;;21.89;27.25;99078.25;5038081;28;937;-73
2023/12/28 01:12:46;;;;;;;;;;;;;;;21.90;27.38;99072.16;5020346;28;1645;-73
2023/12/28 01:15:12;;;;;;;;;;;;;;;21.93;27.22;99081.84;4996834;28;1479;-73
2023/12/28 01:17:38;;;;;;;;;;;;;;;21.77;27.38;99069.06;4981416;28;948;-73
2023/12/28 01:20:04;;;;;;;;;;;;;;;21.72;27.45;99068.72;4981296;28;964;-73
2023/12/28 01:22:30;;;;;;;;;;;;;;;21.70;27.25;99066.28;4997236;28;1127;-73
2023/12/28 01:24:55;;;;;;;;;;;;;;;21.51;27.55;99064.06;4980674;28;1981;-73
2023/12/28 01:27:21;;;;;;;;;;;;;;;21.69;27.74;99064.69;4981267;28;930;-73
2023/12/28 01:29:46;;;;;;;;;;;;;;;21.83;27.40;99053.22;4964766;28;1671;-73
2023/12/28 01:32:12;;;;;;;;;;;;;;;22.18;27.02;99056.09;4961493;28;1161;-73
2023/12/28 01:34:38;;;;;;;;;;;;;;;21.73;27.29;99045.63;4945361;28;1348;-73
2023/12/28 01:37:03;;;;;;;;;;;;;;;21.96;27.45;99047.78;4974991;28;992;-73
2023/12/28 01:39:29;;;;;;;;;;;;;;;21.96;27.05;99055.50;4977930;28;1127;-73
2023/12/28 01:41:55;;;;;;;;;;;;;;;21.68;27.28;99063.06;4961003;28;955;-73
2023/12/28 01:44:20;;;;;;;;;;;;;;;21.66;27.14;99059.88;4977245;28;1449;-73
2023/12/28 01:46:46;;;;;;;;;;;;;;;21.81;27.51;99055.66;5010366;28;1971;-73
2023/12/28 01:49:11;;;;;;;;;;;;;;;21.79;27.53;99060.94;5015743;28;1473;-73
2023/12/28 01:51:37;;;;;;;;;;;;;;;21.91;27.31;99047.44;5016342;28;1582;-73
2023/12/28 01:54:03;;;;;;;;;;;;;;;21.89;27.30;99055.59;5016331;28;1136;-73
2023/12/28 01:56:28;;;;;;;;;;;;;;;22.05;27.04;99050.13;5050808;28;1796;-73
2023/12/28 01:58:54;;;;;;;;;;;;;;;20.89;27.34;98898.03;5019215;28;1330;-73
2023/12/28 02:01:20;;;;;;;;;;;;;;;21.69;27.48;99059.00;5019367;28;1218;-73
2023/12/28 02:03:46;;;;;;;;;;;;;;;21.72;27.14;99061.03;4999430;28;1135;-73
2023/12/28 02:06:11;;;;;;;;;;;;;;;21.54;27.66;99060.38;4998937;28;1969;-73
2023/12/28 02:08:37;;;;;;;;;;;;;;;21.71;27.51;99059.41;4999820;28;1045;-73
2023/12/28 02:11:02;;;;;;;;;;;;;;;21.92;27.14;99060.41;4944682;28;1120;-73
2023/12/28 02:13:28;;;;;;;;;;;;;;;21.94;27.20;99069.28;4960805;28;1231;-73
2023/12/28 02:15:54;;;;;;;;;;;;;;;21.77;27.33;99065.44;4941211;29;1805;-73
2023/12/28 02:18:21;;;;;;;;;;;;;;;21.56;27.46;99060.78;4941466;29;1243;-73
2023/12/28 02:20:47;;;;;;;;;;;;;;;21.48;27.90;99067.72;4957313;29;1002;-73
2023/12/28 02:23:14;;;;;;;;;;;;;;;21.62;27.76;99078.94;4939485;29;1268;-73
2023/12/28 02:25:39;;;;;;;;;;;;;;;21.85;27.41;99079.06;4933040;29;1910;-73
2023/12/28 02:28:05;;;;;;;;;;;;;;;22.01;27.03;99081.34;4957284;29;968;-73
2023/12/28 02:30:30;;;;;;;;;;;;;;;21.94;26.98;99089.13;4960254;28;1133;-73
2023/12/28 02:33:02;;;;;;;;;;;;;;;21.72;27.31;99083.69;4960500;28;957;-73
2023/12/28 02:35:27;;;;;;;;;;;;;;;21.46;27.82;99085.16;4974883;28;1355;-73
2023/12/28 02:37:53;;;;;;;;;;;;;;;21.48;27.79;99088.34;4995896;28;1572;-73
2023/12/28 02:40:19;;;;;;;;;;;;;;;21.88;27.45;99090.81;4979695;28;1235;-73
2023/12/28 02:42:44;;;;;;;;;;;;;;;21.93;27.11;99096.03;5027034;28;962;-73
2023/12/28 02:45:10;;;;;;;;;;;;;;;21.95;27.21;99087.91;5017030;28;1958;-73
2023/12/28 02:47:36;;;;;;;;;;;;;;;21.77;27.43;99088.09;5031490;28;1206;-73
2023/12/28 02:50:02;;;;;;;;;;;;;;;21.69;27.27;99087.34;5030525;28;979;-73
2023/12/28 02:52:27;;;;;;;;;;;;;;;21.79;27.16;99096.97;5021855;28;1616;-73
2023/12/28 02:54:53;;;;;;;;;;;;;;;21.41;27.76;99093.28;5037434;28;1547;-73
2023/12/28 02:57:19;;;;;;;;;;;;;;;21.93;27.15;99084.69;5018273;28;1218;-73
2023/12/28 02:59:45;;;;;;;;;;;;;;;21.75;27.31;99080.00;5018264;28;1224;-73
2023/12/28 03:02:10;;;;;;;;;;;;;;;21.67;27.55;99089.81;4995730;28;1021;-73
2023/12/28 03:04:36;;;;;;;;;;;;;;;21.63;27.18;99079.72;4978035;28;1973;-73
2023/12/28 03:07:01;;;;;;;;;;;;;;;21.82;26.95;99079.13;4976660;28;981;-73
2023/12/28 03:09:27;;;;;;;;;;;;;;;21.95;27.19;99073.72;4959648;28;1108;-73
2023/12/28 03:11:54;;;;;;;;;;;;;;;22.02;26.84;99076.47;4944063;28;1206;-73
2023/12/28 03:14:21;;;;;;;;;;;;;;;22.00;26.96;99087.44;4929955;29;1479;-73
2023/12/28 03:16:47;;;;;;;;;;;;;;;21.84;27.08;99077.47;4940180;29;1192;-73
2023/12/28 03:19:12;;;;;;;;;;;;;;;21.69;27.41;99090.19;4940492;29;1141;-73
2023/12/28 03:21:38;;;;;;;;;;;;;;;21.69;27.16;99090.19;4956223;29;966;-73
2023/12/28 03:24:04;;;;;;;;;;;;;;;21.41;27.17;99081.97;4931715;29;1364;-73
2023/12/28 03:26:30;;;;;;;;;;;;;;;21.70;27.29;99083.28;4956306;29;1915;-73
2023/12/28 03:28:55;;;;;;;;;;;;;;;22.02;26.43;99085.81;4956382;29;1037;-73
2023/12/28 03:31:21;;;;;;;;;;;;;;;21.90;26.79;99074.97;4940121;29;1252;-73
2023/12/28 03:33:46;;;;;;;;;;;;;;;21.78;27.08;99073.50;4978920;28;1300;-73
2023/12/28 03:36:23;;;;;;;;;;;;;;;21.80;26.92;99076.69;4994699;28;1230;-73
2023/12/28 03:38:48;;;;;;;;;;;;;;;21.46;27.36;99073.00;4978648;28;1207;-73
2023/12/28 03:41:20;;;;;;;;;;;;;;;21.49;27.39;99072.16;4994962;28;1018;-73
2023/12/28 03:43:46;;;;;;;;;;;;;;;21.96;26.73;99072.50;5002437;28;1409;-73
2023/12/28 03:46:11;;;;;;;;;;;;;;;21.85;26.76;99064.91;4997950;28;1918;-73
2023/12/28 03:48:37;;;;;;;;;;;;;;;22.09;26.37;99070.72;4941866;28;1219;-73
2023/12/28 03:51:03;;;;;;;;;;;;;;;21.87;27.04;99063.72;4905254;29;1235;-73
2023/12/28 03:53:28;;;;;;;;;;;;;;;21.89;26.73;99073.38;4933663;29;1422;-73
2023/12/28 03:55:54;;;;;;;;;;;;;;;21.76;26.78;99070.28;4930125;29;1406;-73
2023/12/28 03:58:20;;;;;;;;;;;;;;;21.73;26.61;99076.78;4920714;29;1419;-73
2023/12/28 04:00:45;;;;;;;;;;;;;;;21.84;26.97;99076.66;4921278;29;998;-73
2023/12/28 04:03:11;;;;;;;;;;;;;;;21.93;26.57;99062.03;4921027;29;968;-73
2023/12/28 04:05:36;;;;;;;;;;;;;;;21.96;26.59;99055.50;4919851;29;1902;-73
2023/12/28 04:08:03;;;;;;;;;;;;;;;21.74;26.78;99055.72;4936379;29;1179;-73
2023/12/28 04:10:30;;;;;;;;;;;;;;;21.62;27.25;99056.28;4936762;29;1123;-73
2023/12/28 04:12:57;;;;;;;;;;;;;;;21.88;26.96;99048.31;4943810;28;1221;-73
2023/12/28 04:15:23;;;;;;;;;;;;;;;22.00;26.58;99051.38;4979214;28;1431;-73
2023/12/28 04:17:49;;;;;;;;;;;;;;;22.01;26.90;99063.53;5010757;28;1140;-73
2023/12/28 04:20:15;;;;;;;;;;;;;;;21.78;26.85;99050.84;5025538;28;1338;-73
2023/12/28 04:22:43;;;;;;;;;;;;;;;21.71;27.13;99056.59;5034665;28;1091;-73
2023/12/28 04:25:11;;;;;;;;;;;;;;;21.47;27.27;99046.31;5036232;28;1971;-73
2023/12/28 04:27:37;;;;;;;;;;;;;;;21.78;27.31;99048.00;5040413;28;1314;-73
2023/12/28 04:30:05;;;;;;;;;;;;;;;21.78;27.08;99056.50;5041188;28;1182;-73
2023/12/28 04:32:34;;;;;;;;;;;;;;;21.85;26.63;99033.75;5041112;28;1683;-73
2023/12/28 04:35:03;;;;;;;;;;;;;;;21.87;26.97;99052.38;5040143;28;1327;-73
2023/12/28 04:37:30;;;;;;;;;;;;;;;21.87;27.15;99044.69;5024532;28;1199;-73
2023/12/28 04:39:56;;;;;;;;;;;;;;;21.53;27.55;99041.78;4998335;28;1142;-73
2023/12/28 04:42:22;;;;;;;;;;;;;;;21.81;27.28;99043.50;4981622;28;1108;-73
2023/12/28 04:44:47;;;;;;;;;;;;;;;21.23;28.06;99053.75;4981914;28;1979;-73
2023/12/28 04:47:13;;;;;;;;;;;;;;;21.81;27.34;99050.00;4980724;28;1320;-73
2023/12/28 04:49:39;;;;;;;;;;;;;;;21.72;27.54;99061.03;4981865;28;1250;-73
2023/12/28 04:52:05;;;;;;;;;;;;;;;22.15;26.89;99056.94;4981775;28;961;-73
2023/12/28 04:54:32;;;;;;;;;;;;;;;22.22;26.69;99054.00;4981721;28;1081;-73
2023/12/28 04:56:58;;;;;;;;;;;;;;;21.56;27.59;99052.28;4957810;29;1596;-73
2023/12/28 04:59:24;;;;;;;;;;;;;;;21.58;27.27;99044.16;4945530;29;1633;-73
2023/12/28 05:01:49;;;;;;;;;;;;;;;21.49;27.66;99043.84;4943057;29;992;-73
2023/12/28 05:04:15;;;;;;;;;;;;;;;21.97;27.45;99052.25;4958971;29;1012;-72
2023/12/28 05:06:42;;;;;;;;;;;;;;;21.75;27.52;99057.34;4943151;29;1981;-73
2023/12/28 05:09:08;;;;;;;;;;;;;;;21.82;27.38;99048.78;4942999;29;1096;-73
2023/12/28 05:11:33;;;;;;;;;;;;;;;21.64;27.58;99050.19;4972846;28;960;-73
2023/12/28 05:13:59;;;;;;;;;;;;;;;21.73;27.28;99047.66;4997287;28;959;-73
2023/12/28 05:16:24;;;;;;;;;;;;;;;21.73;27.10;99042.78;4997732;28;966;-73
2023/12/28 05:18:50;;;;;;;;;;;;;;;21.62;27.69;99047.78;4997684;28;1090;-73
2023/12/28 05:21:15;;;;;;;;;;;;;;;21.43;28.09;99045.53;4997392;28;1030;-73
2023/12/28 05:23:41;;;;;;;;;;;;;;;21.69;27.35;99053.34;4997540;28;1129;-72
2023/12/28 05:26:07;;;;;;;;;;;;;;;21.89;27.07;99050.72;4980966;28;1977;-72
2023/12/28 05:28:32;;;;;;;;;;;;;;;21.65;27.37;99055.41;5013771;28;964;-74
2023/12/28 05:31:01;;;;;;;;;;;;;;;21.66;27.24;99059.88;5034334;28;802;-74
2023/12/28 05:33:26;;;;;;;;;;;;;;;21.40;27.65;99063.34;5034133;28;1251;-73
2023/12/28 05:35:52;;;;;;;;;;;;;;;21.66;27.51;99048.53;5017602;28;755;-73
2023/12/28 05:38:17;;;;;;;;;;;;;;;22.00;27.14;99047.75;5034149;28;852;-73
2023/12/28 05:40:44;;;;;;;;;;;;;;;22.12;26.71;99063.44;5034193;28;1178;-73
2023/12/28 05:43:10;;;;;;;;;;;;;;;22.09;26.86;99060.19;5034274;28;889;-73
2023/12/28 05:45:36;;;;;;;;;;;;;;;21.72;27.41;99055.34;5034342;28;1977;-73
2023/12/28 05:48:01;;;;;;;;;;;;;;;21.44;27.38;99059.25;5017115;28;1276;-74
2023/12/28 05:50:27;;;;;;;;;;;;;;;21.30;27.79;99057.38;5030911;28;1215;-73
2023/12/28 05:52:53;;;;;;;;;;;;;;;21.67;27.63;99066.34;5027701;28;1333;-74
2023/12/28 05:55:18;;;;;;;;;;;;;;;21.77;27.30;99066.22;5036613;28;1257;-73
2023/12/28 05:57:44;;;;;;;;;;;;;;;21.92;27.05;99066.09;5028608;28;1200;-73
2023/12/28 06:00:10;;;;;;;;;;;;;;;21.80;27.24;99065.38;5044306;28;1343;-73
2023/12/28 06:02:38;;;;;;;;;;;;;;;21.46;27.61;99064.53;5055909;28;1499;-73
2023/12/28 06:05:04;;;;;;;;;;;;;;;21.41;27.71;99064.97;5069962;28;1971;-73
2023/12/28 06:07:29;;;;;;;;;;;;;;;21.65;27.75;99065.94;5076024;28;1040;-73
2023/12/28 06:09:55;;;;;;;;;;;;;;;21.78;27.44;99070.66;5015180;28;1111;-73
2023/12/28 06:12:21;;;;;;;;;;;;;;;21.79;27.44;99068.63;4999962;28;1110;-73
2023/12/28 06:14:46;;;;;;;;;;;;;;;21.91;27.17;99058.78;5016072;28;931;-73
2023/12/28 06:17:12;;;;;;;;;;;;;;;21.63;27.31;99066.38;4999220;28;1403;-73
2023/12/28 06:19:38;;;;;;;;;;;;;;;21.73;27.07;99065.47;4982946;28;1159;-73
2023/12/28 06:22:04;;;;;;;;;;;;;;;21.67;27.49;99066.34;5015297;28;1297;-73
2023/12/28 06:24:30;;;;;;;;;;;;;;;21.88;27.38;99063.28;5015454;28;1257;-73
2023/12/28 06:26:56;;;;;;;;;;;;;;;22.04;27.09;99057.03;5015305;28;1972;-73
2023/12/28 06:29:21;;;;;;;;;;;;;;;21.88;27.21;99059.66;4999258;28;1301;-73
2023/12/28 06:31:47;;;;;;;;;;;;;;;21.80;27.36;99054.03;4999219;28;1250;-73
2023/12/28 06:34:13;;;;;;;;;;;;;;;21.77;27.44;99065.44;4972688;28;1186;-73
2023/12/28 06:36:38;;;;;;;;;;;;;;;21.39;27.97;99064.56;4981084;28;1293;-73
2023/12/28 06:39:04;;;;;;;;;;;;;;;21.70;27.59;99065.47;5005214;28;1197;-73
2023/12/28 06:41:30;;;;;;;;;;;;;;;21.97;27.18;99059.94;4989943;28;1310;-73
2023/12/28 06:43:55;;;;;;;;;;;;;;;22.03;27.36;99073.22;5005989;28;1320;-73
2023/12/28 06:46:21;;;;;;;;;;;;;;;21.69;27.55;99070.34;4974729;28;1918;-73
2023/12/28 06:48:47;;;;;;;;;;;;;;;21.65;27.60;99069.56;5035316;28;1165;-73
2023/12/28 06:51:19;;;;;;;;;;;;;;;21.50;28.22;99060.44;5036580;28;1488;-73
2023/12/28 06:53:45;;;;;;;;;;;;;;;21.89;27.46;99064.88;5036196;28;929;-73
2023/12/28 06:56:10;;;;;;;;;;;;;;;21.91;27.46;99064.44;5018729;28;993;-73
2023/12/28 06:58:36;;;;;;;;;;;;;;;21.89;27.39;99069.75;5018233;28;952;-73
2023/12/28 07:01:04;;;;;;;;;;;;;;;22.05;27.36;99070.75;5023642;28;1076;-73
2023/12/28 07:03:32;;;;;;;;;;;;;;;21.64;27.81;99073.63;5028969;28;1218;-73
2023/12/28 07:06:00;;;;;;;;;;;;;;;21.81;27.44;99071.84;5009560;28;2032;-73
2023/12/28 07:08:26;;;;;;;;;;;;;;;21.68;27.73;99065.91;4998549;28;914;-73
2023/12/28 07:10:52;;;;;;;;;;;;;;;21.75;27.67;99056.53;4998675;28;1189;-73
2023/12/28 07:13:17;;;;;;;;;;;;;;;21.84;27.81;99054.00;5014997;28;975;-73
2023/12/28 07:15:43;;;;;;;;;;;;;;;21.94;27.79;99046.63;5014758;28;963;-73
2023/12/28 07:18:08;;;;;;;;;;;;;;;21.79;27.80;99052.44;4998706;28;1061;-73
2023/12/28 07:20:34;;;;;;;;;;;;;;;21.77;27.70;99060.56;5014620;28;915;-73
2023/12/28 07:23:00;;;;;;;;;;;;;;;21.63;27.92;99059.91;5014762;28;916;-73
2023/12/28 07:25:25;;;;;;;;;;;;;;;21.83;27.81;99067.38;5014741;28;1883;-73
2023/12/28 07:27:51;;;;;;;;;;;;;;;22.10;27.21;99055.34;5011437;28;1092;-73
2023/12/28 07:30:17;;;;;;;;;;;;;;;22.08;27.28;99057.78;4999756;28;1029;-73
2023/12/28 07:32:42;;;;;;;;;;;;;;;21.90;27.71;99068.53;5015972;28;854;-73
2023/12/28 07:35:08;;;;;;;;;;;;;;;21.25;28.39;99069.13;4999518;28;972;-73
2023/12/28 07:37:34;;;;;;;;;;;;;;;21.40;28.37;99063.34;5032084;28;1001;-73
2023/12/28 07:40:00;;;;;;;;;;;;;;;21.47;28.46;99057.63;4983854;28;1176;-73
2023/12/28 07:42:26;;;;;;;;;;;;;;;21.65;28.00;99063.91;5015784;28;1205;-72
2023/12/28 07:44:51;;;;;;;;;;;;;;;22.01;27.41;99066.38;5015756;28;1898;-73
2023/12/28 07:47:17;;;;;;;;;;;;;;;21.79;28.09;99069.44;5015270;28;1157;-73
2023/12/28 07:49:42;;;;;;;;;;;;;;;21.70;27.93;99076.81;5016413;28;880;-72
2023/12/28 07:52:08;;;;;;;;;;;;;;;21.55;27.93;99070.47;5015356;28;953;-73
2023/12/28 07:54:34;;;;;;;;;;;;;;;21.53;28.44;99070.09;5016503;28;968;-73
2023/12/28 07:56:59;;;;;;;;;;;;;;;21.64;28.15;99073.63;5015331;28;945;-73
2023/12/28 07:59:25;;;;;;;;;;;;;;;21.67;28.22;99083.34;4998611;28;1056;-72
2023/12/28 08:01:51;;;;;;;;;;;;;;;21.99;27.52;99085.81;5022002;28;1299;-73
2023/12/28 08:04:16;;;;;;;;;;;;;;;21.79;27.71;99086.44;5034349;28;1229;-73
2023/12/28 08:06:42;;;;;;;;;;;;;;;21.77;27.37;99088.91;5035377;28;1906;-73
2023/12/28 08:09:08;;;;;;;;;;;;;;;21.52;28.01;99079.84;5023365;28;1261;-74
2023/12/28 08:11:34;;;;;;;;;;;;;;;21.88;27.53;99076.66;5036016;28;1210;-74
2023/12/28 08:14:00;;;;;;;;;;;;;;;22.12;27.14;99075.56;5012429;28;1229;-73
2023/12/28 08:16:26;;;;;;;;;;;;;;;21.93;27.41;99073.34;5039534;28;1295;-75
2023/12/28 08:18:51;;;;;;;;;;;;;;;22.03;27.36;99086.59;5034867;28;1108;-74
2023/12/28 08:21:17;;;;;;;;;;;;;;;22.07;27.12;99084.50;5035311;28;1234;-74
2023/12/28 08:23:43;;;;;;;;;;;;;;;21.76;27.74;99087.28;5018774;28;1157;-74
2023/12/28 08:26:09;;;;;;;;;;;;;;;21.72;27.51;99080.84;5034742;28;1918;-74
2023/12/28 08:28:35;;;;;;;;;;;;;;;21.47;28.11;99077.44;5034948;28;1193;-74
2023/12/28 08:31:01;;;;;;;;;;;;;;;21.66;28.16;99088.19;5034595;28;891;-74
2023/12/28 08:33:26;;;;;;;;;;;;;;;21.65;28.01;99083.72;5035785;28;898;-74
2023/12/28 08:35:52;;;;;;;;;;;;;;;21.93;27.73;99084.69;5017703;28;1405;-74
2023/12/28 08:38:17;;;;;;;;;;;;;;;21.65;28.00;99069.56;5041666;28;1269;-74
2023/12/28 08:40:44;;;;;;;;;;;;;;;21.56;27.89;99063.63;5052927;28;1273;-74
2023/12/28 08:43:10;;;;;;;;;;;;;;;21.83;27.67;99058.88;5050331;28;1642;-74
2023/12/28 08:45:35;;;;;;;;;;;;;;;21.95;27.51;99065.22;5037030;28;1981;-74
2023/12/28 08:48:01;;;;;;;;;;;;;;;22.00;27.44;99056.25;5047160;28;1146;-74
2023/12/28 08:50:27;;;;;;;;;;;;;;;21.83;27.77;99047.53;5036601;28;1257;-75
2023/12/28 08:52:52;;;;;;;;;;;;;;;22.01;27.54;99060.69;5041003;28;1300;-75
2023/12/28 08:55:18;;;;;;;;;;;;;;;21.76;27.84;99046.81;5009699;28;1534;-75
2023/12/28 08:57:43;;;;;;;;;;;;;;;21.81;27.52;99038.66;4997685;28;1274;-75
2023/12/28 09:00:10;;;;;;;;;;;;;;;21.57;28.00;99046.19;4961949;28;1048;-74
2023/12/28 09:02:35;;;;;;;;;;;;;;;21.89;28.03;99044.25;4962041;28;1358;-72
2023/12/28 09:05:01;;;;;;;;;;;;;;;21.92;27.74;99037.75;4977866;28;1910;-72
2023/12/28 09:07:26;;;;;;;;;;;;;;;22.10;27.63;99029.81;4990622;28;1194;-72
2023/12/28 09:09:52;;;;;;;;;;;;;;;22.02;27.45;99031.13;4993901;28;958;-73
2023/12/28 09:12:18;;;;;;;;;;;;;;;21.90;27.58;99031.69;4979985;28;1171;-73
2023/12/28 09:14:43;;;;;;;;;;;;;;;21.92;27.48;99023.59;4981501;28;929;-73
2023/12/28 09:17:09;;;;;;;;;;;;;;;22.02;27.58;99019.78;4995899;28;1019;-73
2023/12/28 09:19:34;;;;;;;;;;;;;;;21.96;27.79;99018.66;4997102;28;1070;-73
2023/12/28 09:22:00;;;;;;;;;;;;;;;22.11;27.39;99005.94;4997106;28;985;-73
2023/12/28 09:24:26;;;;;;;;;;;;;;;21.71;28.17;98999.94;5011894;28;939;-74
2023/12/28 09:26:51;;;;;;;;;;;;;;;21.46;28.38;98994.53;5016679;28;1973;-74
2023/12/28 09:29:17;;;;;;;;;;;;;;;21.63;28.18;98998.38;5014897;28;998;-74
2023/12/28 09:31:42;;;;;;;;;;;;;;;21.92;27.99;98992.41;5036372;28;988;-75
2023/12/28 09:34:08;;;;;;;;;;;;;;;21.82;28.05;98985.66;5036729;28;949;-73
2023/12/28 09:36:33;;;;;;;;;;;;;;;21.69;28.13;98978.91;5019985;28;1165;-74
2023/12/28 09:38:59;;;;;;;;;;;;;;;21.67;28.37;98976.50;5020149;28;1190;-74
2023/12/28 09:41:28;;;;;;;;;;;;;;;21.73;27.84;98969.16;5019889;28;1135;-74
2023/12/28 09:43:54;;;;;;;;;;;;;;;21.44;28.77;98959.34;5019893;28;1086;-74
2023/12/28 09:46:20;;;;;;;;;;;;;;;21.65;28.28;98956.28;5036121;28;1898;-74
2023/12/28 09:48:46;;;;;;;;;;;;;;;21.84;28.34;98952.81;5036252;28;1108;-74
2023/12/28 09:51:12;;;;;;;;;;;;;;;21.73;28.18;98954.97;5033597;28;988;-74
2023/12/28 09:53:37;;;;;;;;;;;;;;;21.64;28.39;98954.69;5017594;28;1185;-73
2023/12/28 09:56:03;;;;;;;;;;;;;;;21.74;28.06;98948.09;5034147;28;1122;-74
2023/12/28 09:58:31;;;;;;;;;;;;;;;21.57;28.41;98943.44;5033759;28;1012;-74
2023/12/28 10:00:57;;;;;;;;;;;;;;;21.92;27.87;98947.06;5055817;28;945;-74
2023/12/28 10:03:22;;;;;;;;;;;;;;;22.01;27.97;98955.84;5039600;28;1035;-75
2023/12/28 10:05:48;;;;;;;;;;;;;;;21.93;27.98;98948.69;5055825;28;1894;-74
2023/12/28 10:08:14;;;;;;;;;;;;;;;21.99;27.80;98947.78;5039252;28;947;-74
2023/12/28 10:10:40;;;;;;;;;;;;;;;21.54;28.26;98949.94;5022403;28;1062;-74
2023/12/28 10:13:09;;;;;;;;;;;;;;;21.43;28.74;98927.41;5039097;28;1021;-74
2023/12/28 10:15:37;;;;;;;;;;;;;;;21.65;28.32;98932.81;5022402;28;1208;-74
2023/12/28 10:18:04;;;;;;;;;;;;;;;21.96;27.96;98930.81;5022898;28;779;-73
2023/12/28 10:20:31;;;;;;;;;;;;;;;21.73;28.39;98929.47;5040368;28;1475;-74
2023/12/28 10:22:57;;;;;;;;;;;;;;;21.64;28.28;98920.69;5042211;28;942;-73
2023/12/28 10:25:23;;;;;;;;;;;;;;;21.77;28.21;98921.75;5042295;28;1959;-73
2023/12/28 10:27:52;;;;;;;;;;;;;;;21.73;28.21;98912.50;5075862;28;1128;-73
2023/12/28 10:30:18;;;;;;;;;;;;;;;21.93;28.26;98915.47;5055449;28;938;-74
2023/12/28 10:32:43;;;;;;;;;;;;;;;22.06;27.95;98912.84;5019085;28;1140;-74
2023/12/28 10:35:09;;;;;;;;;;;;;;;21.82;28.37;98909.16;5016138;28;988;-73
2023/12/28 10:37:34;;;;;;;;;;;;;;;21.73;28.47;98895.50;5018888;28;938;-74
2023/12/28 10:40:00;;;;;;;;;;;;;;;21.78;28.18;98903.53;5035489;28;1037;-74
2023/12/28 10:42:30;;;;;;;;;;;;;;;21.45;28.67;98895.84;5035100;28;1015;-74
2023/12/28 10:45:00;;;;;;;;;;;;;;;21.83;28.18;98900.22;4995698;28;1906;-74
2023/12/28 10:47:25;;;;;;;;;;;;;;;21.83;28.37;98899.41;4975867;28;1134;-74
2023/12/28 10:49:53;;;;;;;;;;;;;;;21.90;28.35;98898.50;4960117;28;904;-74
2023/12/28 10:52:18;;;;;;;;;;;;;;;22.10;27.76;98893.78;4906140;29;1217;-74
2023/12/28 10:54:45;;;;;;;;;;;;;;;21.89;28.16;98897.72;4922021;29;988;-74
2023/12/28 10:57:11;;;;;;;;;;;;;;;21.57;28.54;98887.59;4921788;29;1069;-74
2023/12/28 10:59:42;;;;;;;;;;;;;;;21.75;28.06;98887.38;4937503;29;952;-75
2023/12/28 11:02:08;;;;;;;;;;;;;;;21.87;28.34;98882.38;4905953;29;969;-74
2023/12/28 11:04:34;;;;;;;;;;;;;;;22.27;27.80;98878.56;4902994;29;904;-74
2023/12/28 11:07:00;;;;;;;;;;;;;;;21.92;28.19;98879.06;4918498;29;1922;-75
2023/12/28 11:09:26;;;;;;;;;;;;;;;21.41;28.73;98872.44;4886831;29;1043;-74
2023/12/28 11:11:51;;;;;;;;;;;;;;;21.42;28.61;98879.72;4883961;29;1139;-74
2023/12/28 11:14:20;;;;;;;;;;;;;;;21.56;28.61;98871.03;4921677;29;1230;-74
2023/12/28 11:16:45;;;;;;;;;;;;;;;21.61;28.72;98876.25;4921861;29;1390;-74
2023/12/28 11:19:11;;;;;;;;;;;;;;;21.75;28.62;98861.88;4937334;29;1200;-74
2023/12/28 11:21:36;;;;;;;;;;;;;;;21.96;28.17;98868.47;4959858;28;938;-74
2023/12/28 11:24:02;;;;;;;;;;;;;;;21.87;28.11;98860.50;4959652;28;1042;-75
2023/12/28 11:26:28;;;;;;;;;;;;;;;21.73;28.40;98860.69;4959680;28;1919;-74
2023/12/28 11:29:03;;;;;;;;;;;;;;;21.84;28.32;98858.53;4968942;28;976;-74
2023/12/28 11:31:33;;;;;;;;;;;;;;;21.74;28.06;98863.09;5017870;28;975;-74
2023/12/28 11:33:59;;;;;;;;;;;;;;;21.52;28.68;98856.94;5033952;28;900;-74
2023/12/28 11:36:47;;;;;;;;;;;;;;;21.95;28.39;98856.34;5017605;28;977;-74
2023/12/28 11:39:12;;;;;;;;;;;;;;;21.84;28.43;98856.50;5034024;28;929;-74
2023/12/28 11:41:38;;;;;;;;;;;;;;;21.91;28.52;98854.78;5017604;28;791;-74
2023/12/28 11:44:06;;;;;;;;;;;;;;;21.70;28.49;98845.34;5017821;28;736;-74
2023/12/28 11:46:32;;;;;;;;;;;;;;;21.79;28.46;98847.66;5015557;28;1985;-74
2023/12/28 11:49:10;;;;;;;;;;;;;;;21.58;28.46;98840.25;5015789;28;1030;-74
2023/12/28 11:51:39;;;;;;;;;;;;;;;21.53;28.80;98830.19;5016672;28;786;-74
2023/12/28 11:54:04;;;;;;;;;;;;;;;21.67;28.81;98834.09;5015506;28;708;-75
2023/12/28 11:56:30;;;;;;;;;;;;;;;21.94;28.14;98831.25;5015471;28;1245;-75
2023/12/28 11:58:56;;;;;;;;;;;;;;;21.97;28.07;98830.44;5016125;28;818;-76
2023/12/28 12:01:21;;;;;;;;;;;;;;;21.47;28.62;98819.78;5015481;28;1300;-75
2023/12/28 12:03:48;;;;;;;;;;;;;;;21.43;29.05;98813.34;5016246;28;774;-75
2023/12/28 12:06:13;;;;;;;;;;;;;;;21.90;28.23;98807.84;5015209;28;1976;-75
2023/12/28 12:08:39;;;;;;;;;;;;;;;21.87;28.30;98803.06;5016448;28;1148;-75
2023/12/28 12:11:05;;;;;;;;;;;;;;;22.15;27.86;98796.94;5015205;28;752;-75
2023/12/28 12:13:31;;;;;;;;;;;;;;;21.93;28.25;98790.00;5015137;28;838;-75
2023/12/28 12:15:57;;;;;;;;;;;;;;;21.91;28.15;98792.44;5015417;28;1063;-75
2023/12/28 12:18:22;;;;;;;;;;;;;;;21.75;28.15;98787.41;5015307;28;775;-75
2023/12/28 12:20:48;;;;;;;;;;;;;;;21.81;28.45;98783.69;5016628;28;881;-75
2023/12/28 12:23:14;;;;;;;;;;;;;;;21.92;28.48;98777.06;4998707;28;1064;-75
2023/12/28 12:25:40;;;;;;;;;;;;;;;22.09;28.09;98767.47;5015012;28;1979;-75
2023/12/28 12:28:06;;;;;;;;;;;;;;;22.14;27.94;98772.69;5014902;28;839;-75
2023/12/28 12:30:31;;;;;;;;;;;;;;;22.05;28.16;98772.38;5015085;28;1057;-75
2023/12/28 12:32:57;;;;;;;;;;;;;;;21.72;28.46;98769.25;5015994;28;878;-75
2023/12/28 12:35:23;;;;;;;;;;;;;;;21.69;28.34;98775.78;5015118;28;854;-75
2023/12/28 12:37:51;;;;;;;;;;;;;;;21.75;28.58;98768.38;4998821;28;1282;-75
2023/12/28 12:40:19;;;;;;;;;;;;;;;21.94;28.22;98763.25;4999109;28;814;-75
2023/12/28 12:42:54;;;;;;;;;;;;;;;22.00;28.22;98761.53;5015123;28;894;-75
2023/12/28 12:45:20;;;;;;;;;;;;;;;22.13;28.19;98761.78;5016056;28;1989;-75
2023/12/28 12:47:46;;;;;;;;;;;;;;;21.89;28.23;98752.41;5001786;28;1090;-75
2023/12/28 12:50:12;;;;;;;;;;;;;;;21.73;28.41;98753.88;5018898;28;1283;-75
2023/12/28 12:52:38;;;;;;;;;;;;;;;21.70;28.48;98749.03;5020144;28;880;-75
2023/12/28 12:55:03;;;;;;;;;;;;;;;21.84;28.50;98748.81;5020908;28;1048;-75